sensor_id;sensor_type;location;lat;lon;timestamp;P1;durP1;ratioP1;P2;durP2;ratioP2
84027;SDS011;74111;45.650;25.612;2024-01-30T00:00:18;30.20;;;14.10;;
84027;SDS011;74111;45.650;25.612;2024-01-30T00:03:06;24.40;;;11.60;;
84027;SDS011;74111;45.650;25.612;2024-01-30T00:05:34;23.50;;;10.40;;
84027;SDS011;74111;45.650;25.612;2024-01-30T00:08:03;35.20;;;11.70;;
84027;SDS011;74111;45.650;25.612;2024-01-30T00:10:31;33.10;;;13.30;;
84027;SDS011;74111;45.650;25.612;2024-01-30T00:13:00;28.80;;;11.40;;
84027;SDS011;74111;45.650;25.612;2024-01-30T00:15:28;31.80;;;11.20;;
84027;SDS011;74111;45.650;25.612;2024-01-30T00:17:56;19.20;;;8.90;;
84027;SDS011;74111;45.650;25.612;2024-01-30T00:20:25;20.80;;;9.70;;
84027;SDS011;74111;45.650;25.612;2024-01-30T00:22:53;19.30;;;10.10;;
84027;SDS011;74111;45.650;25.612;2024-01-30T00:25:21;21.80;;;9.00;;
84027;SDS011;74111;45.650;25.612;2024-01-30T00:27:50;20.30;;;9.20;;
84027;SDS011;74111;45.650;25.612;2024-01-30T00:30:18;24.60;;;11.90;;
84027;SDS011;74111;45.650;25.612;2024-01-30T00:32:46;23.80;;;13.90;;
84027;SDS011;74111;45.650;25.612;2024-01-30T00:35:15;29.20;;;17.50;;
84027;SDS011;74111;45.650;25.612;2024-01-30T00:37:43;25.20;;;14.20;;
84027;SDS011;74111;45.650;25.612;2024-01-30T00:40:11;25.80;;;13.50;;
84027;SDS011;74111;45.650;25.612;2024-01-30T00:42:44;23.50;;;13.60;;
84027;SDS011;74111;45.650;25.612;2024-01-30T00:45:15;21.80;;;12.70;;
84027;SDS011;74111;45.650;25.612;2024-01-30T00:47:44;21.10;;;11.60;;
84027;SDS011;74111;45.650;25.612;2024-01-30T00:50:12;17.00;;;9.90;;
84027;SDS011;74111;45.650;25.612;2024-01-30T00:52:40;18.80;;;10.40;;
84027;SDS011;74111;45.650;25.612;2024-01-30T00:55:09;16.90;;;9.10;;
84027;SDS011;74111;45.650;25.612;2024-01-30T00:57:38;13.00;;;7.40;;
84027;SDS011;74111;45.650;25.612;2024-01-30T01:00:07;10.80;;;6.20;;
84027;SDS011;74111;45.650;25.612;2024-01-30T01:02:36;15.20;;;6.50;;
84027;SDS011;74111;45.650;25.612;2024-01-30T01:05:05;10.70;;;6.10;;
84027;SDS011;74111;45.650;25.612;2024-01-30T01:07:33;11.00;;;5.90;;
84027;SDS011;74111;45.650;25.612;2024-01-30T01:10:02;6.00;;;3.90;;
84027;SDS011;74111;45.650;25.612;2024-01-30T01:12:31;6.70;;;4.10;;
84027;SDS011;74111;45.650;25.612;2024-01-30T01:14:59;8.60;;;5.00;;
84027;SDS011;74111;45.650;25.612;2024-01-30T01:17:28;9.60;;;4.90;;
84027;SDS011;74111;45.650;25.612;2024-01-30T01:19:56;10.40;;;5.20;;
84027;SDS011;74111;45.650;25.612;2024-01-30T01:22:25;9.70;;;4.90;;
84027;SDS011;74111;45.650;25.612;2024-01-30T01:24:53;8.10;;;3.90;;
84027;SDS011;74111;45.650;25.612;2024-01-30T01:27:21;9.70;;;4.80;;
84027;SDS011;74111;45.650;25.612;2024-01-30T01:29:50;6.90;;;4.00;;
84027;SDS011;74111;45.650;25.612;2024-01-30T01:32:18;10.00;;;5.20;;
84027;SDS011;74111;45.650;25.612;2024-01-30T01:34:47;9.40;;;6.50;;
84027;SDS011;74111;45.650;25.612;2024-01-30T01:37:15;16.40;;;9.00;;
84027;SDS011;74111;45.650;25.612;2024-01-30T01:39:44;19.60;;;10.30;;
84027;SDS011;74111;45.650;25.612;2024-01-30T01:42:12;17.20;;;9.30;;
84027;SDS011;74111;45.650;25.612;2024-01-30T01:44:40;17.20;;;8.80;;
84027;SDS011;74111;45.650;25.612;2024-01-30T01:47:08;16.00;;;8.50;;
84027;SDS011;74111;45.650;25.612;2024-01-30T01:49:37;14.30;;;8.20;;
84027;SDS011;74111;45.650;25.612;2024-01-30T01:52:05;16.00;;;7.60;;
84027;SDS011;74111;45.650;25.612;2024-01-30T01:54:34;17.10;;;8.90;;
84027;SDS011;74111;45.650;25.612;2024-01-30T01:57:03;10.50;;;6.10;;
84027;SDS011;74111;45.650;25.612;2024-01-30T01:59:32;8.60;;;5.10;;
84027;SDS011;74111;45.650;25.612;2024-01-30T02:02:00;10.70;;;5.20;;
84027;SDS011;74111;45.650;25.612;2024-01-30T02:04:31;9.00;;;5.00;;
84027;SDS011;74111;45.650;25.612;2024-01-30T02:06:59;7.60;;;4.30;;
84027;SDS011;74111;45.650;25.612;2024-01-30T02:09:28;5.50;;;4.40;;
84027;SDS011;74111;45.650;25.612;2024-01-30T02:11:56;8.10;;;4.70;;
84027;SDS011;74111;45.650;25.612;2024-01-30T02:14:24;12.60;;;6.90;;
84027;SDS011;74111;45.650;25.612;2024-01-30T02:16:56;21.00;;;10.50;;
84027;SDS011;74111;45.650;25.612;2024-01-30T02:19:25;29.50;;;13.00;;
84027;SDS011;74111;45.650;25.612;2024-01-30T02:21:53;34.80;;;16.40;;
84027;SDS011;74111;45.650;25.612;2024-01-30T02:24:22;30.20;;;14.40;;
84027;SDS011;74111;45.650;25.612;2024-01-30T02:26:50;32.20;;;19.20;;
84027;SDS011;74111;45.650;25.612;2024-01-30T02:29:18;50.10;;;24.50;;
84027;SDS011;74111;45.650;25.612;2024-01-30T02:31:46;46.60;;;25.50;;
84027;SDS011;74111;45.650;25.612;2024-01-30T02:34:14;43.60;;;24.40;;
84027;SDS011;74111;45.650;25.612;2024-01-30T02:36:43;45.30;;;26.00;;
84027;SDS011;74111;45.650;25.612;2024-01-30T02:39:11;39.40;;;23.60;;
84027;SDS011;74111;45.650;25.612;2024-01-30T02:41:39;37.00;;;21.90;;
84027;SDS011;74111;45.650;25.612;2024-01-30T02:44:07;41.20;;;23.90;;
84027;SDS011;74111;45.650;25.612;2024-01-30T02:46:36;35.90;;;19.10;;
84027;SDS011;74111;45.650;25.612;2024-01-30T02:49:04;34.10;;;16.80;;
84027;SDS011;74111;45.650;25.612;2024-01-30T02:51:32;26.20;;;14.60;;
84027;SDS011;74111;45.650;25.612;2024-01-30T02:54:01;32.40;;;14.80;;
84027;SDS011;74111;45.650;25.612;2024-01-30T02:56:29;33.90;;;15.80;;
84027;SDS011;74111;45.650;25.612;2024-01-30T02:58:57;28.40;;;15.40;;
84027;SDS011;74111;45.650;25.612;2024-01-30T03:01:25;37.10;;;16.20;;
84027;SDS011;74111;45.650;25.612;2024-01-30T03:03:54;31.60;;;15.10;;
84027;SDS011;74111;45.650;25.612;2024-01-30T03:06:22;29.50;;;15.40;;
84027;SDS011;74111;45.650;25.612;2024-01-30T03:08:51;27.30;;;13.70;;
84027;SDS011;74111;45.650;25.612;2024-01-30T03:11:19;30.00;;;15.90;;
84027;SDS011;74111;45.650;25.612;2024-01-30T03:13:47;30.70;;;16.50;;
84027;SDS011;74111;45.650;25.612;2024-01-30T03:16:15;36.30;;;16.70;;
84027;SDS011;74111;45.650;25.612;2024-01-30T03:18:43;30.60;;;14.00;;
84027;SDS011;74111;45.650;25.612;2024-01-30T03:21:12;31.30;;;15.30;;
84027;SDS011;74111;45.650;25.612;2024-01-30T03:23:40;25.60;;;12.90;;
84027;SDS011;74111;45.650;25.612;2024-01-30T03:26:10;28.20;;;17.40;;
84027;SDS011;74111;45.650;25.612;2024-01-30T03:28:40;40.60;;;25.40;;
84027;SDS011;74111;45.650;25.612;2024-01-30T03:31:08;38.30;;;23.10;;
84027;SDS011;74111;45.650;25.612;2024-01-30T03:33:37;48.20;;;24.80;;
84027;SDS011;74111;45.650;25.612;2024-01-30T03:36:06;41.30;;;23.00;;
84027;SDS011;74111;45.650;25.612;2024-01-30T03:38:34;38.70;;;21.40;;
84027;SDS011;74111;45.650;25.612;2024-01-30T03:41:03;37.20;;;21.30;;
84027;SDS011;74111;45.650;25.612;2024-01-30T03:43:35;26.70;;;15.40;;
84027;SDS011;74111;45.650;25.612;2024-01-30T03:46:03;28.20;;;14.80;;
84027;SDS011;74111;45.650;25.612;2024-01-30T03:48:32;26.70;;;12.80;;
84027;SDS011;74111;45.650;25.612;2024-01-30T03:51:00;23.20;;;12.20;;
84027;SDS011;74111;45.650;25.612;2024-01-30T03:53:29;25.60;;;14.10;;
84027;SDS011;74111;45.650;25.612;2024-01-30T03:55:57;25.40;;;12.40;;
84027;SDS011;74111;45.650;25.612;2024-01-30T03:58:25;24.00;;;12.80;;
84027;SDS011;74111;45.650;25.612;2024-01-30T04:00:54;25.20;;;14.40;;
84027;SDS011;74111;45.650;25.612;2024-01-30T04:03:22;37.90;;;16.20;;
84027;SDS011;74111;45.650;25.612;2024-01-30T04:05:54;33.20;;;14.70;;
84027;SDS011;74111;45.650;25.612;2024-01-30T04:08:22;31.30;;;12.70;;
84027;SDS011;74111;45.650;25.612;2024-01-30T04:10:50;36.40;;;14.00;;
84027;SDS011;74111;45.650;25.612;2024-01-30T04:13:18;32.30;;;13.40;;
84027;SDS011;74111;45.650;25.612;2024-01-30T04:15:47;28.30;;;12.40;;
84027;SDS011;74111;45.650;25.612;2024-01-30T04:18:15;20.80;;;9.00;;
84027;SDS011;74111;45.650;25.612;2024-01-30T04:20:44;14.40;;;8.30;;
84027;SDS011;74111;45.650;25.612;2024-01-30T04:23:13;15.50;;;7.00;;
84027;SDS011;74111;45.650;25.612;2024-01-30T04:25:41;17.80;;;9.40;;
84027;SDS011;74111;45.650;25.612;2024-01-30T04:28:09;31.80;;;17.00;;
84027;SDS011;74111;45.650;25.612;2024-01-30T04:30:39;54.50;;;25.60;;
84027;SDS011;74111;45.650;25.612;2024-01-30T04:33:08;46.40;;;28.50;;
84027;SDS011;74111;45.650;25.612;2024-01-30T04:35:36;46.90;;;24.20;;
84027;SDS011;74111;45.650;25.612;2024-01-30T04:38:04;44.00;;;23.30;;
84027;SDS011;74111;45.650;25.612;2024-01-30T04:40:32;37.30;;;21.00;;
84027;SDS011;74111;45.650;25.612;2024-01-30T04:43:00;36.80;;;18.80;;
84027;SDS011;74111;45.650;25.612;2024-01-30T04:45:29;35.50;;;17.00;;
84027;SDS011;74111;45.650;25.612;2024-01-30T04:47:57;28.20;;;13.90;;
84027;SDS011;74111;45.650;25.612;2024-01-30T04:50:25;37.40;;;19.10;;
84027;SDS011;74111;45.650;25.612;2024-01-30T04:52:54;27.10;;;12.20;;
84027;SDS011;74111;45.650;25.612;2024-01-30T04:55:22;32.10;;;14.70;;
84027;SDS011;74111;45.650;25.612;2024-01-30T04:57:51;31.50;;;14.60;;
84027;SDS011;74111;45.650;25.612;2024-01-30T05:00:19;24.20;;;11.60;;
84027;SDS011;74111;45.650;25.612;2024-01-30T05:02:48;34.60;;;15.40;;
84027;SDS011;74111;45.650;25.612;2024-01-30T05:05:16;18.20;;;11.10;;
84027;SDS011;74111;45.650;25.612;2024-01-30T05:07:44;42.80;;;23.30;;
84027;SDS011;74111;45.650;25.612;2024-01-30T05:10:13;49.10;;;24.50;;
84027;SDS011;74111;45.650;25.612;2024-01-30T05:12:41;39.90;;;20.70;;
84027;SDS011;74111;45.650;25.612;2024-01-30T05:15:10;43.50;;;23.80;;
84027;SDS011;74111;45.650;25.612;2024-01-30T05:17:38;37.10;;;20.90;;
84027;SDS011;74111;45.650;25.612;2024-01-30T05:20:06;41.30;;;21.10;;
84027;SDS011;74111;45.650;25.612;2024-01-30T05:22:35;40.60;;;20.70;;
84027;SDS011;74111;45.650;25.612;2024-01-30T05:25:04;45.80;;;23.60;;
84027;SDS011;74111;45.650;25.612;2024-01-30T05:30:01;39.80;;;20.70;;
84027;SDS011;74111;45.650;25.612;2024-01-30T05:32:29;38.90;;;22.30;;
84027;SDS011;74111;45.650;25.612;2024-01-30T05:34:57;41.40;;;21.60;;
84027;SDS011;74111;45.650;25.612;2024-01-30T05:37:26;37.60;;;19.10;;
84027;SDS011;74111;45.650;25.612;2024-01-30T05:39:54;45.10;;;21.60;;
84027;SDS011;74111;45.650;25.612;2024-01-30T05:42:22;39.10;;;20.20;;
84027;SDS011;74111;45.650;25.612;2024-01-30T05:44:50;37.30;;;20.90;;
84027;SDS011;74111;45.650;25.612;2024-01-30T05:47:18;33.70;;;17.10;;
84027;SDS011;74111;45.650;25.612;2024-01-30T05:49:47;28.90;;;11.70;;
84027;SDS011;74111;45.650;25.612;2024-01-30T05:52:15;22.60;;;12.00;;
84027;SDS011;74111;45.650;25.612;2024-01-30T05:54:44;17.20;;;9.10;;
84027;SDS011;74111;45.650;25.612;2024-01-30T05:57:12;34.20;;;14.30;;
84027;SDS011;74111;45.650;25.612;2024-01-30T05:59:40;29.40;;;15.40;;
84027;SDS011;74111;45.650;25.612;2024-01-30T06:02:10;27.80;;;13.30;;
84027;SDS011;74111;45.650;25.612;2024-01-30T06:04:39;30.90;;;14.40;;
84027;SDS011;74111;45.650;25.612;2024-01-30T06:07:08;31.70;;;15.70;;
84027;SDS011;74111;45.650;25.612;2024-01-30T06:09:36;26.40;;;13.70;;
84027;SDS011;74111;45.650;25.612;2024-01-30T06:12:06;30.10;;;14.10;;
84027;SDS011;74111;45.650;25.612;2024-01-30T06:14:34;31.50;;;16.50;;
84027;SDS011;74111;45.650;25.612;2024-01-30T06:17:03;43.20;;;25.80;;
84027;SDS011;74111;45.650;25.612;2024-01-30T06:19:31;53.10;;;29.70;;
84027;SDS011;74111;45.650;25.612;2024-01-30T06:21:59;49.60;;;25.60;;
84027;SDS011;74111;45.650;25.612;2024-01-30T06:24:28;40.40;;;19.70;;
84027;SDS011;74111;45.650;25.612;2024-01-30T06:26:56;37.80;;;19.00;;
84027;SDS011;74111;45.650;25.612;2024-01-30T06:29:24;34.70;;;19.00;;
84027;SDS011;74111;45.650;25.612;2024-01-30T06:31:54;41.10;;;20.40;;
84027;SDS011;74111;45.650;25.612;2024-01-30T06:34:23;40.20;;;22.80;;
84027;SDS011;74111;45.650;25.612;2024-01-30T06:36:51;45.20;;;19.40;;
84027;SDS011;74111;45.650;25.612;2024-01-30T06:39:19;42.30;;;22.20;;
84027;SDS011;74111;45.650;25.612;2024-01-30T06:41:47;29.20;;;16.60;;
84027;SDS011;74111;45.650;25.612;2024-01-30T06:44:16;35.00;;;18.10;;
84027;SDS011;74111;45.650;25.612;2024-01-30T06:46:44;33.20;;;17.50;;
84027;SDS011;74111;45.650;25.612;2024-01-30T06:49:12;29.20;;;13.10;;
84027;SDS011;74111;45.650;25.612;2024-01-30T06:51:40;31.80;;;14.50;;
84027;SDS011;74111;45.650;25.612;2024-01-30T06:54:09;32.50;;;15.60;;
84027;SDS011;74111;45.650;25.612;2024-01-30T06:56:37;25.20;;;11.30;;
84027;SDS011;74111;45.650;25.612;2024-01-30T06:59:05;28.50;;;13.10;;
84027;SDS011;74111;45.650;25.612;2024-01-30T07:01:34;20.10;;;10.90;;
84027;SDS011;74111;45.650;25.612;2024-01-30T07:04:03;20.90;;;12.40;;
84027;SDS011;74111;45.650;25.612;2024-01-30T07:06:32;27.40;;;13.90;;
84027;SDS011;74111;45.650;25.612;2024-01-30T07:09:00;24.90;;;12.90;;
84027;SDS011;74111;45.650;25.612;2024-01-30T07:11:28;26.00;;;13.70;;
84027;SDS011;74111;45.650;25.612;2024-01-30T07:13:56;23.10;;;12.70;;
84027;SDS011;74111;45.650;25.612;2024-01-30T07:16:25;25.20;;;13.60;;
84027;SDS011;74111;45.650;25.612;2024-01-30T07:18:53;27.40;;;13.70;;
84027;SDS011;74111;45.650;25.612;2024-01-30T07:21:21;26.20;;;13.90;;
84027;SDS011;74111;45.650;25.612;2024-01-30T07:23:55;42.70;;;20.60;;
84027;SDS011;74111;45.650;25.612;2024-01-30T07:26:23;41.40;;;19.20;;
84027;SDS011;74111;45.650;25.612;2024-01-30T07:28:51;36.50;;;17.20;;
84027;SDS011;74111;45.650;25.612;2024-01-30T07:31:20;37.40;;;15.90;;
84027;SDS011;74111;45.650;25.612;2024-01-30T07:33:51;25.50;;;13.30;;
84027;SDS011;74111;45.650;25.612;2024-01-30T07:36:20;25.20;;;14.00;;
84027;SDS011;74111;45.650;25.612;2024-01-30T07:38:48;27.70;;;12.30;;
84027;SDS011;74111;45.650;25.612;2024-01-30T07:41:16;25.90;;;13.40;;
84027;SDS011;74111;45.650;25.612;2024-01-30T07:43:44;30.50;;;15.50;;
84027;SDS011;74111;45.650;25.612;2024-01-30T07:46:12;26.60;;;14.00;;
84027;SDS011;74111;45.650;25.612;2024-01-30T07:48:41;38.00;;;18.90;;
84027;SDS011;74111;45.650;25.612;2024-01-30T07:51:10;28.50;;;14.80;;
84027;SDS011;74111;45.650;25.612;2024-01-30T07:53:38;34.30;;;16.80;;
84027;SDS011;74111;45.650;25.612;2024-01-30T07:56:06;29.10;;;13.90;;
84027;SDS011;74111;45.650;25.612;2024-01-30T07:58:34;38.10;;;17.20;;
84027;SDS011;74111;45.650;25.612;2024-01-30T08:01:03;35.90;;;15.70;;
84027;SDS011;74111;45.650;25.612;2024-01-30T08:03:31;21.70;;;10.70;;
84027;SDS011;74111;45.650;25.612;2024-01-30T08:06:00;38.20;;;17.50;;
84027;SDS011;74111;45.650;25.612;2024-01-30T08:08:28;33.50;;;16.20;;
84027;SDS011;74111;45.650;25.612;2024-01-30T08:10:56;33.60;;;16.00;;
84027;SDS011;74111;45.650;25.612;2024-01-30T08:13:24;26.00;;;13.40;;
84027;SDS011;74111;45.650;25.612;2024-01-30T08:15:53;33.50;;;16.10;;
84027;SDS011;74111;45.650;25.612;2024-01-30T08:18:21;45.20;;;20.00;;
84027;SDS011;74111;45.650;25.612;2024-01-30T08:20:49;37.90;;;18.70;;
84027;SDS011;74111;45.650;25.612;2024-01-30T08:23:17;55.20;;;25.20;;
84027;SDS011;74111;45.650;25.612;2024-01-30T08:25:46;50.50;;;22.30;;
84027;SDS011;74111;45.650;25.612;2024-01-30T08:28:14;47.40;;;23.50;;
84027;SDS011;74111;45.650;25.612;2024-01-30T08:30:46;48.10;;;22.60;;
84027;SDS011;74111;45.650;25.612;2024-01-30T08:33:14;38.90;;;18.30;;
84027;SDS011;74111;45.650;25.612;2024-01-30T08:35:42;33.00;;;17.70;;
84027;SDS011;74111;45.650;25.612;2024-01-30T08:38:11;39.90;;;18.30;;
84027;SDS011;74111;45.650;25.612;2024-01-30T08:43:08;51.80;;;25.60;;
84027;SDS011;74111;45.650;25.612;2024-01-30T08:45:38;30.70;;;16.00;;
84027;SDS011;74111;45.650;25.612;2024-01-30T08:48:06;47.20;;;24.30;;
84027;SDS011;74111;45.650;25.612;2024-01-30T08:50:35;41.40;;;20.20;;
84027;SDS011;74111;45.650;25.612;2024-01-30T08:53:04;35.40;;;17.50;;
84027;SDS011;74111;45.650;25.612;2024-01-30T08:55:32;41.00;;;21.50;;
84027;SDS011;74111;45.650;25.612;2024-01-30T08:58:00;48.00;;;26.50;;
84027;SDS011;74111;45.650;25.612;2024-01-30T09:02:58;47.00;;;24.30;;
84027;SDS011;74111;45.650;25.612;2024-01-30T09:05:26;35.50;;;19.70;;
84027;SDS011;74111;45.650;25.612;2024-01-30T09:07:54;49.40;;;24.40;;
84027;SDS011;74111;45.650;25.612;2024-01-30T09:10:22;42.10;;;22.60;;
84027;SDS011;74111;45.650;25.612;2024-01-30T09:12:51;47.70;;;25.70;;
84027;SDS011;74111;45.650;25.612;2024-01-30T09:15:19;40.80;;;22.80;;
84027;SDS011;74111;45.650;25.612;2024-01-30T09:17:50;40.50;;;21.90;;
84027;SDS011;74111;45.650;25.612;2024-01-30T09:20:18;41.10;;;21.90;;
84027;SDS011;74111;45.650;25.612;2024-01-30T09:22:48;43.60;;;25.40;;
84027;SDS011;74111;45.650;25.612;2024-01-30T09:25:17;53.60;;;30.20;;
84027;SDS011;74111;45.650;25.612;2024-01-30T09:27:46;51.20;;;30.20;;
84027;SDS011;74111;45.650;25.612;2024-01-30T09:30:15;46.70;;;26.80;;
84027;SDS011;74111;45.650;25.612;2024-01-30T09:32:45;60.80;;;36.20;;
84027;SDS011;74111;45.650;25.612;2024-01-30T09:35:13;59.70;;;33.90;;
84027;SDS011;74111;45.650;25.612;2024-01-30T09:37:42;51.90;;;28.90;;
84027;SDS011;74111;45.650;25.612;2024-01-30T09:40:10;64.80;;;36.70;;
84027;SDS011;74111;45.650;25.612;2024-01-30T09:42:39;53.50;;;33.10;;
84027;SDS011;74111;45.650;25.612;2024-01-30T09:45:09;61.60;;;33.50;;
84027;SDS011;74111;45.650;25.612;2024-01-30T09:47:42;58.10;;;30.50;;
84027;SDS011;74111;45.650;25.612;2024-01-30T09:50:12;56.40;;;32.80;;
84027;SDS011;74111;45.650;25.612;2024-01-30T09:52:44;59.50;;;33.00;;
84027;SDS011;74111;45.650;25.612;2024-01-30T09:55:13;44.90;;;28.00;;
84027;SDS011;74111;45.650;25.612;2024-01-30T09:57:42;48.90;;;29.10;;
84027;SDS011;74111;45.650;25.612;2024-01-30T10:00:11;56.00;;;33.40;;
84027;SDS011;74111;45.650;25.612;2024-01-30T10:02:40;46.10;;;27.60;;
84027;SDS011;74111;45.650;25.612;2024-01-30T10:05:09;51.80;;;30.00;;
84027;SDS011;74111;45.650;25.612;2024-01-30T10:07:53;38.80;;;22.60;;
84027;SDS011;74111;45.650;25.612;2024-01-30T10:10:25;50.10;;;27.50;;
84027;SDS011;74111;45.650;25.612;2024-01-30T10:12:54;45.40;;;26.00;;
84027;SDS011;74111;45.650;25.612;2024-01-30T10:15:22;45.60;;;27.30;;
84027;SDS011;74111;45.650;25.612;2024-01-30T10:17:50;51.00;;;30.50;;
84027;SDS011;74111;45.650;25.612;2024-01-30T10:20:19;43.60;;;26.10;;
84027;SDS011;74111;45.650;25.612;2024-01-30T10:22:50;41.00;;;25.90;;
84027;SDS011;74111;45.650;25.612;2024-01-30T10:25:18;49.20;;;30.10;;
84027;SDS011;74111;45.650;25.612;2024-01-30T10:27:53;45.70;;;27.50;;
84027;SDS011;74111;45.650;25.612;2024-01-30T10:30:24;49.40;;;29.70;;
84027;SDS011;74111;45.650;25.612;2024-01-30T10:32:53;54.00;;;30.50;;
84027;SDS011;74111;45.650;25.612;2024-01-30T10:35:21;46.70;;;29.90;;
84027;SDS011;74111;45.650;25.612;2024-01-30T10:37:50;49.80;;;33.90;;
84027;SDS011;74111;45.650;25.612;2024-01-30T10:40:18;56.00;;;33.60;;
84027;SDS011;74111;45.650;25.612;2024-01-30T10:42:49;52.80;;;31.70;;
84027;SDS011;74111;45.650;25.612;2024-01-30T10:45:23;43.30;;;26.90;;
84027;SDS011;74111;45.650;25.612;2024-01-30T10:47:55;54.20;;;34.10;;
84027;SDS011;74111;45.650;25.612;2024-01-30T10:50:28;47.30;;;33.00;;
84027;SDS011;74111;45.650;25.612;2024-01-30T10:52:58;50.30;;;33.30;;
84027;SDS011;74111;45.650;25.612;2024-01-30T10:55:28;51.70;;;35.40;;
84027;SDS011;74111;45.650;25.612;2024-01-30T10:57:57;51.10;;;35.80;;
84027;SDS011;74111;45.650;25.612;2024-01-30T11:00:27;51.20;;;35.10;;
84027;SDS011;74111;45.650;25.612;2024-01-30T11:02:56;72.20;;;38.50;;
84027;SDS011;74111;45.650;25.612;2024-01-30T11:05:25;43.60;;;30.20;;
84027;SDS011;74111;45.650;25.612;2024-01-30T11:08:10;49.50;;;35.40;;
84027;SDS011;74111;45.650;25.612;2024-01-30T11:10:48;50.60;;;34.70;;
84027;SDS011;74111;45.650;25.612;2024-01-30T11:13:18;54.80;;;33.20;;
84027;SDS011;74111;45.650;25.612;2024-01-30T11:15:47;47.20;;;30.90;;
84027;SDS011;74111;45.650;25.612;2024-01-30T11:18:24;44.30;;;28.80;;
84027;SDS011;74111;45.650;25.612;2024-01-30T11:20:56;34.70;;;26.00;;
84027;SDS011;74111;45.650;25.612;2024-01-30T11:23:25;36.50;;;25.80;;
84027;SDS011;74111;45.650;25.612;2024-01-30T11:25:56;36.60;;;28.60;;
84027;SDS011;74111;45.650;25.612;2024-01-30T11:28:25;39.90;;;30.00;;
84027;SDS011;74111;45.650;25.612;2024-01-30T11:31:07;41.50;;;28.40;;
84027;SDS011;74111;45.650;25.612;2024-01-30T11:33:46;37.70;;;27.50;;
84027;SDS011;74111;45.650;25.612;2024-01-30T11:36:25;34.40;;;24.60;;
84027;SDS011;74111;45.650;25.612;2024-01-30T11:38:55;38.50;;;25.50;;
84027;SDS011;74111;45.650;25.612;2024-01-30T11:41:25;38.30;;;25.70;;
84027;SDS011;74111;45.650;25.612;2024-01-30T11:43:54;25.90;;;22.10;;
84027;SDS011;74111;45.650;25.612;2024-01-30T11:48:52;36.00;;;24.50;;
84027;SDS011;74111;45.650;25.612;2024-01-30T11:51:21;37.60;;;21.20;;
84027;SDS011;74111;45.650;25.612;2024-01-30T11:53:50;37.10;;;22.10;;
84027;SDS011;74111;45.650;25.612;2024-01-30T11:56:19;35.20;;;20.10;;
84027;SDS011;74111;45.650;25.612;2024-01-30T11:58:47;34.20;;;21.70;;
84027;SDS011;74111;45.650;25.612;2024-01-30T12:01:16;29.30;;;23.50;;
84027;SDS011;74111;45.650;25.612;2024-01-30T12:03:51;29.00;;;21.60;;
84027;SDS011;74111;45.650;25.612;2024-01-30T12:06:20;45.00;;;23.80;;
84027;SDS011;74111;45.650;25.612;2024-01-30T12:08:56;28.00;;;21.00;;
84027;SDS011;74111;45.650;25.612;2024-01-30T12:11:26;25.90;;;20.90;;
84027;SDS011;74111;45.650;25.612;2024-01-30T12:13:58;31.00;;;23.00;;
84027;SDS011;74111;45.650;25.612;2024-01-30T12:16:26;23.10;;;19.40;;
84027;SDS011;74111;45.650;25.612;2024-01-30T12:19:01;28.10;;;22.30;;
84027;SDS011;74111;45.650;25.612;2024-01-30T12:21:30;28.30;;;20.20;;
84027;SDS011;74111;45.650;25.612;2024-01-30T12:23:59;23.60;;;18.20;;
84027;SDS011;74111;45.650;25.612;2024-01-30T12:26:28;28.30;;;17.90;;
84027;SDS011;74111;45.650;25.612;2024-01-30T12:31:31;27.50;;;19.80;;
84027;SDS011;74111;45.650;25.612;2024-01-30T12:34:00;31.80;;;18.50;;
84027;SDS011;74111;45.650;25.612;2024-01-30T12:36:29;27.50;;;18.20;;
84027;SDS011;74111;45.650;25.612;2024-01-30T12:39:00;25.60;;;18.50;;
84027;SDS011;74111;45.650;25.612;2024-01-30T12:41:29;29.50;;;15.80;;
84027;SDS011;74111;45.650;25.612;2024-01-30T12:46:29;29.40;;;17.80;;
84027;SDS011;74111;45.650;25.612;2024-01-30T12:48:58;31.00;;;16.10;;
84027;SDS011;74111;45.650;25.612;2024-01-30T12:51:26;30.30;;;19.60;;
84027;SDS011;74111;45.650;25.612;2024-01-30T12:53:55;23.10;;;18.20;;
84027;SDS011;74111;45.650;25.612;2024-01-30T12:56:23;22.80;;;15.70;;
84027;SDS011;74111;45.650;25.612;2024-01-30T12:58:52;19.90;;;14.60;;
84027;SDS011;74111;45.650;25.612;2024-01-30T13:01:22;20.30;;;14.40;;
84027;SDS011;74111;45.650;25.612;2024-01-30T13:03:52;19.90;;;16.30;;
84027;SDS011;74111;45.650;25.612;2024-01-30T13:06:20;20.20;;;15.70;;
84027;SDS011;74111;45.650;25.612;2024-01-30T13:08:49;19.80;;;15.80;;
84027;SDS011;74111;45.650;25.612;2024-01-30T13:11:18;18.40;;;14.70;;
84027;SDS011;74111;45.650;25.612;2024-01-30T13:13:48;23.60;;;14.90;;
84027;SDS011;74111;45.650;25.612;2024-01-30T13:16:17;24.60;;;18.50;;
84027;SDS011;74111;45.650;25.612;2024-01-30T13:18:48;24.80;;;18.40;;
84027;SDS011;74111;45.650;25.612;2024-01-30T13:21:19;19.70;;;15.70;;
84027;SDS011;74111;45.650;25.612;2024-01-30T13:23:47;24.00;;;17.90;;
84027;SDS011;74111;45.650;25.612;2024-01-30T13:26:15;21.40;;;15.20;;
84027;SDS011;74111;45.650;25.612;2024-01-30T13:28:43;22.30;;;14.50;;
84027;SDS011;74111;45.650;25.612;2024-01-30T13:31:13;18.10;;;13.60;;
84027;SDS011;74111;45.650;25.612;2024-01-30T13:33:42;21.70;;;14.60;;
84027;SDS011;74111;45.650;25.612;2024-01-30T13:36:11;20.40;;;15.70;;
84027;SDS011;74111;45.650;25.612;2024-01-30T13:38:40;24.50;;;16.30;;
84027;SDS011;74111;45.650;25.612;2024-01-30T13:41:08;29.20;;;16.60;;
84027;SDS011;74111;45.650;25.612;2024-01-30T13:43:36;26.90;;;17.50;;
84027;SDS011;74111;45.650;25.612;2024-01-30T13:46:05;23.30;;;15.90;;
84027;SDS011;74111;45.650;25.612;2024-01-30T13:48:33;20.90;;;14.80;;
84027;SDS011;74111;45.650;25.612;2024-01-30T13:51:01;19.30;;;14.60;;
84027;SDS011;74111;45.650;25.612;2024-01-30T13:53:30;21.90;;;16.50;;
84027;SDS011;74111;45.650;25.612;2024-01-30T13:58:26;25.90;;;17.20;;
84027;SDS011;74111;45.650;25.612;2024-01-30T14:00:55;22.20;;;15.70;;
84027;SDS011;74111;45.650;25.612;2024-01-30T14:03:25;19.20;;;14.70;;
84027;SDS011;74111;45.650;25.612;2024-01-30T14:08:22;18.50;;;13.60;;
84027;SDS011;74111;45.650;25.612;2024-01-30T14:10:51;20.30;;;14.70;;
84027;SDS011;74111;45.650;25.612;2024-01-30T14:13:21;22.50;;;14.90;;
84027;SDS011;74111;45.650;25.612;2024-01-30T14:15:53;20.80;;;13.90;;
84027;SDS011;74111;45.650;25.612;2024-01-30T14:18:22;23.70;;;16.50;;
84027;SDS011;74111;45.650;25.612;2024-01-30T14:20:50;24.50;;;15.30;;
84027;SDS011;74111;45.650;25.612;2024-01-30T14:23:18;22.80;;;15.60;;
84027;SDS011;74111;45.650;25.612;2024-01-30T14:25:46;18.70;;;15.00;;
84027;SDS011;74111;45.650;25.612;2024-01-30T14:28:14;19.60;;;14.30;;
84027;SDS011;74111;45.650;25.612;2024-01-30T14:30:43;20.30;;;14.10;;
84027;SDS011;74111;45.650;25.612;2024-01-30T14:33:11;19.80;;;15.20;;
84027;SDS011;74111;45.650;25.612;2024-01-30T14:35:40;21.90;;;15.40;;
84027;SDS011;74111;45.650;25.612;2024-01-30T14:38:08;20.50;;;13.90;;
84027;SDS011;74111;45.650;25.612;2024-01-30T14:40:38;21.30;;;15.00;;